Terminal Aerodrome Forecast
Issued by NWS

Home | Current Version | Previous Version | Text Only | Print | Product List | Glossary On
Versions: 1 2 3 4 5 6 7 8 9 10 11 12 13 14 15 16 17 18 19 20 21 22 23 24 25 26 27 28 29 30 31 32 33 34 35 36 37 38 39 40 41 42 43 44 45 46 47 48
000
FTUS43 KMKX 200935 AAA
TAFUES
TAF AMD
KUES 200935Z 2010/2106 26010G15KT P6SM VCTS SCT025CB OVC050
      WS020/23045KT
      TEMPO 2010/2012 4SM -TSRA BKN025CB
     FM201200 23011G21KT P6SM VCTS SCT025 BKN040CB
     FM201800 25012G21KT P6SM VCTS BKN030CB
     FM202000 25011KT P6SM SCT045
     FM210100 27005KT P6SM SCT100=

USA.gov is the U.S. government's official web portal to all federal, state and local government web resources and services.